Airport View

Enter AWOS ICAO identifier for current METAR.

ex. KFNL

KMYV 190553Z AUTO 09004KT 10SM CLR 17/14 A3001 RMK AO2 SLP167 T01720144 10278 20161 50007

19 Apr 2019 06:54

Frequency: 118.475

Phone: 530-742-0695

Other Area AWOS: KBAB - KLHM - KSMF - KOVE

TAF KBAB 190300Z 1903/2009 VRB06KT 9999 SKC QNH2994INS TX27/1922Z TN08/1912Z